createdAt,value
2023-03-20T09:56:42.517Z,50.01
2023-03-20T09:59:10.989Z,50.05
2023-03-20T10:01:48.597Z,49.53
2023-03-20T10:04:15.936Z,48.86
2023-03-20T10:06:43.057Z,48.52
2023-03-20T10:09:36.649Z,48.56
2023-03-20T10:12:42.947Z,48.16
2023-03-20T10:15:52.003Z,47.56
2023-03-20T10:18:26.173Z,46.50
2023-03-20T10:21:13.658Z,46.66
2023-03-20T10:23:43.150Z,46.68
2023-03-20T10:26:11.683Z,46.47
2023-03-20T10:29:05.114Z,46.40
2023-03-20T10:31:52.164Z,45.66
2023-03-20T10:34:28.777Z,45.13
2023-03-20T10:37:16.776Z,44.58
2023-03-20T10:39:51.089Z,44.42
2023-03-20T10:42:29.937Z,44.70
2023-03-20T10:45:27.171Z,45.05
2023-03-20T10:47:54.301Z,44.66
2023-03-20T10:50:23.489Z,44.18
2023-03-20T10:52:51.076Z,43.28
2023-03-20T10:55:24.237Z,42.83
2023-03-20T10:57:54.880Z,43.19
2023-03-20T11:00:23.132Z,42.92
2023-03-20T11:02:50.932Z,42.10
2023-03-20T11:05:20.079Z,41.72
2023-03-20T11:07:52.315Z,41.29
2023-03-20T11:10:19.152Z,41.10
2023-03-20T11:12:47.213Z,41.53
2023-03-20T11:15:21.887Z,40.35
2023-03-20T11:17:57.482Z,40.23
2023-03-20T11:20:35.983Z,40.41
2023-03-20T11:23:07.643Z,40.42
2023-03-20T11:25:38.176Z,39.95
2023-03-20T11:28:26.376Z,39.51
2023-03-20T11:31:04.884Z,38.69
2023-03-20T11:33:44.691Z,37.97
2023-03-20T11:36:27.778Z,37.83
2023-03-20T11:39:14.676Z,36.89
2023-03-20T11:41:50.367Z,36.25
2023-03-20T11:44:30.705Z,36.11
2023-03-20T11:47:05.070Z,36.38
2023-03-20T11:49:45.216Z,36.96
2023-03-20T11:52:13.246Z,37.28
2023-03-20T11:54:46.441Z,36.83
2023-03-20T11:57:34.726Z,36.02
2023-03-20T12:00:10.728Z,36.77
2023-03-20T12:02:41.549Z,36.75
2023-03-20T12:05:35.986Z,36.41
2023-03-20T12:08:13.148Z,36.82
2023-03-20T12:10:42.340Z,36.83
2023-03-20T12:13:42.089Z,36.65
2023-03-20T12:16:13.711Z,36.78
2023-03-20T12:18:59.851Z,36.76
2023-03-20T12:21:32.921Z,36.91
2023-03-20T12:24:09.251Z,37.21
2023-03-20T12:26:41.596Z,37.19
2023-03-20T12:29:32.035Z,37.10
2023-03-20T12:32:17.446Z,36.52
2023-03-20T12:34:47.231Z,36.58
2023-03-20T12:37:14.455Z,36.62
2023-03-20T12:39:54.193Z,36.10
2023-03-20T12:42:26.996Z,35.61
2023-03-20T12:45:03.567Z,35.89
2023-03-20T12:47:50.348Z,36.15
2023-03-20T12:50:36.486Z,36.12
2023-03-20T12:53:03.662Z,34.97
2023-03-20T12:55:30.637Z,35.32
2023-03-20T12:58:43.494Z,35.38
2023-03-20T13:01:20.729Z,34.74
2023-03-20T13:03:54.354Z,34.71
2023-03-20T13:06:39.502Z,34.57
2023-03-20T13:09:35.094Z,34.88
2023-03-20T13:12:15.041Z,35.49
2023-03-20T13:15:00.744Z,35.74
2023-03-20T13:17:53.724Z,35.41
2023-03-20T13:20:28.631Z,35.40
2023-03-20T13:23:05.578Z,35.40
2023-03-20T13:25:46.873Z,35.09
2023-03-20T13:28:13.582Z,34.84
2023-03-20T13:30:44.470Z,34.54
2023-03-20T13:33:35.520Z,34.20
2023-03-20T13:36:12.007Z,34.05
2023-03-20T13:38:44.943Z,33.90
2023-03-20T13:41:11.673Z,33.76
2023-03-20T13:43:41.487Z,33.52
2023-03-20T13:46:18.159Z,33.64
2023-03-20T13:48:45.354Z,34.21
2023-03-20T13:51:30.350Z,34.61
2023-03-20T13:54:16.344Z,34.56
2023-03-20T13:57:06.954Z,33.90
2023-03-20T13:59:36.405Z,34.01
2023-03-20T14:02:17.188Z,33.69
2023-03-20T14:04:44.659Z,33.55
2023-03-20T14:07:33.261Z,33.41
2023-03-20T14:10:21.244Z,33.50
2023-03-20T14:12:55.657Z,33.07
2023-03-20T14:15:26.210Z,32.67
2023-03-20T14:17:53.349Z,32.95
2023-03-20T14:23:35.247Z,33.74
2023-03-20T14:26:29.270Z,33.67
2023-03-20T14:29:01.283Z,33.41
2023-03-20T14:31:32.168Z,33.51
2023-03-20T14:34:11.170Z,33.56
2023-03-20T14:36:50.435Z,33.99
2023-03-20T14:39:23.637Z,34.23
2023-03-20T14:41:57.001Z,34.79
2023-03-20T14:44:28.721Z,35.09
2023-03-20T14:47:04.052Z,35.36
2023-03-20T14:50:07.780Z,35.61
2023-03-20T14:52:44.012Z,35.65
2023-03-20T14:55:34.781Z,35.53
2023-03-20T14:58:03.274Z,35.46
2023-03-20T15:00:34.321Z,35.45
2023-03-20T15:03:09.147Z,35.12
2023-03-20T15:05:37.440Z,35.07
2023-03-20T15:08:07.948Z,35.18
2023-03-20T15:10:37.832Z,35.36
2023-03-20T15:13:06.384Z,35.56
2023-03-20T15:15:34.087Z,35.88
2023-03-20T15:18:07.407Z,36.12
2023-03-20T15:20:35.462Z,36.43
2023-03-20T15:23:02.881Z,36.54
2023-03-20T15:25:39.539Z,36.65
2023-03-20T15:28:16.730Z,36.75
2023-03-20T15:30:47.862Z,37.07
2023-03-20T15:33:25.498Z,37.36
2023-03-20T15:35:53.403Z,37.62
2023-03-20T15:38:20.376Z,37.94
2023-03-20T15:40:51.553Z,38.34
2023-03-20T15:43:23.734Z,38.81
2023-03-20T15:45:57.587Z,39.14
2023-03-20T15:48:33.681Z,39.34
2023-03-20T15:51:04.409Z,39.53
2023-03-20T15:53:36.766Z,39.94
2023-03-20T15:56:17.337Z,40.16
2023-03-20T15:58:45.283Z,40.32
2023-03-20T16:01:17.120Z,40.47
2023-03-20T16:03:43.921Z,40.61
2023-03-20T16:06:11.776Z,40.72
2023-03-20T16:08:38.975Z,41.00
2023-03-20T16:11:12.654Z,41.14
2023-03-20T16:13:41.965Z,41.24
2023-03-20T16:16:13.460Z,41.27
2023-03-20T16:18:47.921Z,41.58
2023-03-20T16:21:21.393Z,41.62
2023-03-20T16:23:51.244Z,41.82
2023-03-20T16:26:19.797Z,42.05
2023-03-20T16:28:58.718Z,42.21
2023-03-20T16:31:34.155Z,42.45
2023-03-20T16:34:06.618Z,42.88
2023-03-20T16:36:36.022Z,43.10
2023-03-20T16:39:07.805Z,43.22
2023-03-20T16:41:39.929Z,43.39
2023-03-20T16:44:08.376Z,43.59
2023-03-20T16:46:35.588Z,43.69
2023-03-20T16:49:34.117Z,43.81
2023-03-20T16:52:03.063Z,44.00
2023-03-20T16:54:31.334Z,44.10
2023-03-20T16:56:58.282Z,44.31
2023-03-20T16:59:25.432Z,44.47
2023-03-20T17:01:54.529Z,44.62
2023-03-20T17:04:23.754Z,44.62
2023-03-20T17:06:57.835Z,44.71
2023-03-20T17:09:25.912Z,44.98
2023-03-20T17:12:05.743Z,45.11
2023-03-20T17:14:34.077Z,45.22
2023-03-20T17:17:01.313Z,45.24
2023-03-20T17:19:28.317Z,45.39
2023-03-20T17:21:57.161Z,45.39
2023-03-20T17:24:24.890Z,45.53
2023-03-20T17:26:53.592Z,45.66
2023-03-20T17:29:21.155Z,45.74
2023-03-20T17:31:48.209Z,45.77
2023-03-20T17:34:15.354Z,45.90
2023-03-20T17:36:43.230Z,46.01
2023-03-20T17:39:20.332Z,46.10
2023-03-20T17:41:47.775Z,46.17
2023-03-20T17:44:15.083Z,46.34
2023-03-20T17:47:02.158Z,46.19
2023-03-20T17:49:33.137Z,46.18
2023-03-20T17:52:00.316Z,46.20
2023-03-20T17:54:32.580Z,46.24
2023-03-20T17:56:59.911Z,46.22
2023-03-20T17:59:30.519Z,46.23
2023-03-20T18:01:57.764Z,46.21
2023-03-20T18:04:25.104Z,46.25
2023-03-20T18:06:57.341Z,46.31
2023-03-20T18:09:29.752Z,46.13
2023-03-20T18:11:56.963Z,46.09
2023-03-20T18:14:25.749Z,46.02
2023-03-20T18:16:53.303Z,45.89
2023-03-20T18:19:27.686Z,45.85
2023-03-20T18:21:56.137Z,45.78
2023-03-20T18:24:23.726Z,45.80
2023-03-20T18:26:51.184Z,45.83
2023-03-20T18:29:18.479Z,45.69
2023-03-20T18:31:46.985Z,45.45
2023-03-20T18:34:15.836Z,45.42
2023-03-20T18:36:45.151Z,45.29
2023-03-20T18:39:22.861Z,45.35
2023-03-20T18:41:50.511Z,45.29
2023-03-20T18:44:17.802Z,45.25
2023-03-20T18:46:44.838Z,44.92
2023-03-20T18:49:18.080Z,44.45
2023-03-20T18:51:46.213Z,44.38
2023-03-20T18:54:13.256Z,44.52
2023-03-20T18:56:44.370Z,44.69
2023-03-20T18:59:12.175Z,44.92
2023-03-20T19:01:39.447Z,45.17
2023-03-20T19:04:22.613Z,45.16
2023-03-20T19:06:49.634Z,44.94
2023-03-20T19:09:17.858Z,44.93
2023-03-20T19:11:47.402Z,44.79
2023-03-20T19:14:14.302Z,44.86
2023-03-20T19:16:42.222Z,45.26
2023-03-20T19:19:11.164Z,45.63
2023-03-20T19:21:38.635Z,46.01
2023-03-20T19:24:08.226Z,46.47
2023-03-20T19:26:36.909Z,46.76
2023-03-20T19:29:09.726Z,46.96
2023-03-20T19:31:37.994Z,47.30
2023-03-20T19:34:07.926Z,47.41
2023-03-20T19:36:36.494Z,47.78
2023-03-20T19:39:06.350Z,48.06
2023-03-20T19:41:34.753Z,48.37
2023-03-20T19:44:02.678Z,48.55
2023-03-20T19:46:41.431Z,48.63
2023-03-20T19:49:20.245Z,48.53
2023-03-20T19:51:48.494Z,48.57
2023-03-20T19:54:15.850Z,48.77
2023-03-20T19:56:46.890Z,48.93
2023-03-20T19:59:17.020Z,48.93
2023-03-20T20:01:45.391Z,48.96
2023-03-20T20:04:13.051Z,48.89
2023-03-20T20:06:41.878Z,48.89
2023-03-20T20:09:09.509Z,49.14
2023-03-20T20:11:37.674Z,49.23
2023-03-20T20:14:08.711Z,49.24
2023-03-20T20:16:39.915Z,49.05
2023-03-20T20:19:07.400Z,49.53
2023-03-20T20:24:23.391Z,49.75
2023-03-20T20:27:14.673Z,49.84
2023-03-20T20:29:46.337Z,49.84
2023-03-20T20:32:13.098Z,49.88
2023-03-20T20:38:14.099Z,50.13
2023-03-20T20:40:17.754Z,50.46
2023-03-20T20:42:47.448Z,50.71
2023-03-20T20:45:15.366Z,51.02
2023-03-20T20:47:44.158Z,51.24
2023-03-20T20:50:13.594Z,51.31
2023-03-20T20:52:41.766Z,51.38
2023-03-20T20:55:22.208Z,51.43
2023-03-20T20:57:53.226Z,51.52
2023-03-20T21:00:22.717Z,51.42
2023-03-20T21:02:49.589Z,51.53
2023-03-20T21:05:17.185Z,51.84
2023-03-20T21:07:46.417Z,51.99
2023-03-20T21:10:16.192Z,52.04
2023-03-20T21:12:58.128Z,51.96
2023-03-20T21:15:26.997Z,51.81
2023-03-20T21:18:01.019Z,51.79
2023-03-20T21:20:30.704Z,51.88
2023-03-20T21:22:58.245Z,51.82
2023-03-20T21:25:39.150Z,51.85
2023-03-20T21:28:07.963Z,51.96
2023-03-20T21:30:44.304Z,51.97
2023-03-20T21:33:20.619Z,52.02
2023-03-20T21:35:49.593Z,52.08
2023-03-20T21:41:10.549Z,51.85
2023-03-20T21:43:37.351Z,51.75
2023-03-20T21:46:45.221Z,51.66
2023-03-20T21:58:03.506Z,52.33
2023-03-20T22:00:52.753Z,52.30
2023-03-20T22:02:55.410Z,52.41
2023-03-20T22:11:56.702Z,52.47
2023-03-20T22:25:49.189Z,52.90
2023-03-20T22:37:10.998Z,53.66
2023-03-20T22:44:59.117Z,54.22
2023-03-20T22:47:27.440Z,54.38
2023-03-20T22:49:55.089Z,54.35
2023-03-20T22:52:31.708Z,54.51
2023-03-20T23:02:37.467Z,55.16
2023-03-20T23:05:06.986Z,54.88
2023-03-20T23:07:37.608Z,54.87
2023-03-20T23:10:09.646Z,54.89
2023-03-20T23:12:38.561Z,54.74
2023-03-20T23:15:08.415Z,54.71
2023-03-20T23:17:37.035Z,54.80
2023-03-20T23:20:13.335Z,54.87
2023-03-20T23:22:44.375Z,55.06
2023-03-20T23:25:20.993Z,55.18
2023-03-20T23:27:59.102Z,55.30
2023-03-20T23:30:30.896Z,55.43
2023-03-20T23:33:07.074Z,55.58
2023-03-20T23:35:35.512Z,55.83
2023-03-20T23:38:05.557Z,56.02
2023-03-20T23:40:39.665Z,56.10
2023-03-20T23:43:09.128Z,56.31
2023-03-20T23:45:38.764Z,56.47
2023-03-20T23:48:07.512Z,56.74
2023-03-20T23:50:51.494Z,56.94
2023-03-20T23:53:21.549Z,57.15
2023-03-20T23:55:52.209Z,57.38
2023-03-20T23:58:26.393Z,57.60
